Track Кузьминых Дарья

Time Latitude Longitude Accuracy (66% radius in meters) Altitude (meters) Speed (km/hour) Bearing (degrees) Battery (%) GPS flag
10:24:06 60.370874 29.556451 16 76 0 215.89059448242 33 1 delete
10:23:58 60.370906 29.556409 16 87 0 215.89059448242 33 1 delete
11:23:56 60.370950 29.556325 12 92 0 219.39584350586 33 0 delete
10:23:44 60.370950 29.556325 12 92 0 219.39584350586 33 1 delete
10:23:38 60.370997 29.556374 12 87 0 159.2772064209 33 1 delete
10:23:34 60.371026 29.556402 16 88 0 159.2772064209 33 1 delete
10:23:23 60.371053 29.556448 16 100 0 159.2772064209 33 1 delete
10:23:17 60.371034 29.556437 16 100 0 159.2772064209 33 1 delete
10:23:13 60.371024 29.556418 12 99 0 159.2772064209 33 1 delete
10:23:02 60.371008 29.556435 12 100 0 159.2772064209 33 1 delete
10:22:53 60.370990 29.556401 12 92 0.16020964086056 152.59655761719 33 1 delete
10:22:51 60.371000 29.556384 12 91 0 92.343414306641 33 1 delete
10:22:41 60.370988 29.556362 12 94 0 92.343414306641 33 1 delete
10:22:30 60.370983 29.556349 12 75 0 92.343414306641 33 1 delete
10:22:20 60.370993 29.556323 12 67 0 36.277397155762 33 1 delete
10:22:16 60.371001 29.556312 16 60 0 347.99026489258 33 1 delete
10:22:09 60.370935 29.556311 16 63 0 249.25807189941 33 1 delete
10:21:58 60.370943 29.556349 16 68 0.27158761024475 198.21826171875 33 1 delete
10:21:48 60.370952 29.556325 16 64 0 112.26863861084 33 1 delete
10:21:44 60.370959 29.556275 12 69 0.47021469473839 192.34439086914 33 1 delete
10:21:40 60.371006 29.556288 16 71 0.10529857873917 213.07019042969 33 1 delete
10:21:37 60.371021 29.556293 16 77 0 237.6789855957 33 1 delete
10:21:29 60.371051 29.556301 16 75 0.446104824543 235.26191711426 33 1 delete
10:21:26 60.371075 29.556333 12 85 0 251.38542175293 33 1 delete
10:21:19 60.371079 29.556387 16 78 0 246.11727905273 33 1 delete
10:21:16 60.371089 29.556432 12 74 0 246.11727905273 33 1 delete
10:21:12 60.371110 29.556463 16 77 0 246.11727905273 33 1 delete
10:21:09 60.371150 29.556536 12 76 0 246.66123962402 33 1 delete
10:21:07 60.371185 29.556639 12 80 0 221.10049438477 33 1 delete
10:21:05 60.371211 29.556739 16 84 0 221.10049438477 33 1 delete
10:21:00 60.371212 29.556747 16 81 0 101.82301330566 33 1 delete
10:20:55 60.371256 29.556847 16 90 0 101.82301330566 33 1 delete
10:20:45 60.371276 29.556851 16 93 0 101.82301330566 33 1 delete
10:20:44 60.371288 29.556836 12 95 0 51.521327972412 33 1 delete
10:20:33 60.371291 29.556817 16 76 0 51.521327972412 33 1 delete
10:20:23 60.371268 29.556794 16 83 0 56.457962036133 33 1 delete
10:20:18 60.371286 29.556763 24 82 0 82.415084838867 33 1 delete
10:20:14 60.371341 29.556745 24 86 0 94.218551635742 33 1 delete
10:20:12 60.371349 29.556714 24 84 0 8.2654314041138 37 1 delete
10:20:01 60.371356 29.556694 32 92 0 8.2654314041138 37 1 delete
10:19:55 60.371329 29.556657 48 145 0 8.2654314041138 37 1 delete
10:19:50 60.371104 29.556474 48 120 0 23.274658203125 37 1 delete
11:19:41 60.370843 29.556537 16 72 0 145.44232177734 37 0 delete
11:19:30 60.370843 29.556537 16 72 0 145.44232177734 37 0 delete
11:19:20 60.370843 29.556537 16 72 0 145.44232177734 37 0 delete
11:19:09 60.370843 29.556537 16 72 0 145.44232177734 37 0 delete
11:18:58 60.370843 29.556537 16 72 0 145.44232177734 37 0 delete
11:18:48 60.370843 29.556537 16 72 0 145.44232177734 37 0 delete
11:18:37 60.370843 29.556537 16 72 0 145.44232177734 37 0 delete
11:18:27 60.370843 29.556537 16 72 0 145.44232177734 37 0 delete